createdAt,value
2023-03-11T00:12:59.159Z,5.50
2023-03-11T00:15:26.195Z,5.20
2023-03-11T00:17:55.154Z,5.07
2023-03-11T00:20:22.156Z,5.28
2023-03-11T00:22:49.143Z,5.43
2023-03-11T00:25:16.085Z,5.95
2023-03-11T00:27:43.093Z,5.15
2023-03-11T00:30:09.990Z,6.30
2023-03-11T00:32:40.926Z,5.43
2023-03-11T00:35:11.014Z,5.50
2023-03-11T00:37:38.410Z,5.20
2023-03-11T00:40:05.421Z,5.68
2023-03-11T00:42:35.457Z,5.88
2023-03-11T00:45:02.478Z,6.20
2023-03-11T00:47:29.468Z,5.72
2023-03-11T00:49:56.515Z,6.28
2023-03-11T00:52:23.449Z,6.05
2023-03-11T00:54:50.380Z,6.40
2023-03-11T00:57:17.311Z,5.50
2023-03-11T00:59:44.228Z,5.82
2023-03-11T01:02:11.148Z,5.47
2023-03-11T01:04:38.169Z,6.22
2023-03-11T01:07:05.156Z,5.90
2023-03-11T01:09:32.096Z,5.47
2023-03-11T01:11:59.013Z,6.03
2023-03-11T01:14:25.933Z,5.60
2023-03-11T01:16:53.084Z,5.70
2023-03-11T01:19:20.018Z,5.20
2023-03-11T01:21:46.976Z,4.90
2023-03-11T01:24:13.892Z,4.68
2023-03-11T01:26:40.832Z,4.65
2023-03-11T01:29:07.734Z,4.93
2023-03-11T01:31:34.618Z,4.53
2023-03-11T01:34:01.532Z,5.10
2023-03-11T01:36:28.460Z,4.55
2023-03-11T01:38:55.344Z,4.20
2023-03-11T01:41:22.338Z,4.57
2023-03-11T01:43:51.475Z,4.93
2023-03-11T01:46:18.600Z,4.90
2023-03-11T01:48:45.547Z,4.88
2023-03-11T01:51:12.461Z,5.07
2023-03-11T01:53:39.379Z,4.78
2023-03-11T01:56:06.324Z,5.18
2023-03-11T01:58:33.246Z,5.20
2023-03-11T02:01:00.155Z,5.43
2023-03-11T02:03:27.053Z,5.45
2023-03-11T02:05:53.978Z,5.05
2023-03-11T02:08:20.893Z,5.60
2023-03-11T02:10:47.841Z,5.63
2023-03-11T02:13:14.771Z,5.50
2023-03-11T02:15:41.679Z,5.18
2023-03-11T02:18:08.586Z,5.43
2023-03-11T02:20:35.477Z,5.10
2023-03-11T02:23:02.399Z,5.50
2023-03-11T02:25:29.429Z,5.13
2023-03-11T02:27:56.421Z,5.88
2023-03-11T02:30:23.353Z,5.78
2023-03-11T02:32:50.323Z,5.18
2023-03-11T02:35:17.270Z,5.38
2023-03-11T02:37:44.241Z,4.70
2023-03-11T02:40:11.142Z,5.20
2023-03-11T02:42:38.042Z,5.15
2023-03-11T02:45:04.939Z,5.30
2023-03-11T02:47:31.878Z,5.85
2023-03-11T02:49:58.771Z,5.47
2023-03-11T02:52:25.667Z,4.90
2023-03-11T02:54:52.552Z,4.55
2023-03-11T02:57:19.534Z,5.35
2023-03-11T02:59:46.434Z,4.88
2023-03-11T03:02:13.555Z,5.03
2023-03-11T03:04:40.464Z,4.95
2023-03-11T03:07:07.403Z,4.97
2023-03-11T03:09:34.313Z,5.50
2023-03-11T03:12:01.259Z,4.78
2023-03-11T03:14:28.157Z,4.72
2023-03-11T03:16:55.157Z,4.75
2023-03-11T03:19:22.135Z,5.07
2023-03-11T03:21:49.216Z,5.10
2023-03-11T03:24:16.131Z,4.68
2023-03-11T03:26:43.055Z,4.95
2023-03-11T03:29:09.998Z,4.93
2023-03-11T03:31:36.939Z,6.78
2023-03-11T03:34:03.902Z,4.70
2023-03-11T03:36:30.884Z,5.50
2023-03-11T03:38:57.820Z,5.22
2023-03-11T03:41:24.731Z,5.20
2023-03-11T03:43:51.665Z,5.70
2023-03-11T03:46:18.670Z,5.43
2023-03-11T03:48:45.640Z,5.65
2023-03-11T03:51:12.723Z,5.70
2023-03-11T03:53:39.672Z,5.97
2023-03-11T03:56:06.735Z,6.00
2023-03-11T03:58:33.668Z,6.22
2023-03-11T04:01:00.746Z,6.00
2023-03-11T04:03:27.727Z,6.55
2023-03-11T04:05:57.486Z,5.90
2023-03-11T04:08:24.498Z,5.97
2023-03-11T04:10:53.644Z,6.85
2023-03-11T04:13:20.640Z,7.13
2023-03-11T04:15:47.649Z,6.90
2023-03-11T04:18:14.701Z,6.43
2023-03-11T04:20:41.708Z,6.85
2023-03-11T04:23:08.744Z,7.07
2023-03-11T04:25:35.748Z,7.18
2023-03-11T04:28:02.779Z,7.38
2023-03-11T04:30:29.768Z,6.63
2023-03-11T04:32:56.753Z,6.95
2023-03-11T04:35:23.808Z,7.07
2023-03-11T04:37:50.730Z,7.30
2023-03-11T04:40:17.649Z,6.75
2023-03-11T04:42:44.563Z,7.90
2023-03-11T04:45:11.461Z,7.03
2023-03-11T04:47:38.390Z,7.22
2023-03-11T04:50:05.302Z,7.43
2023-03-11T04:52:32.233Z,7.45
2023-03-11T04:54:59.141Z,7.40
2023-03-11T04:57:26.057Z,7.05
2023-03-11T04:59:52.953Z,7.35
2023-03-11T05:02:19.864Z,6.78
2023-03-11T05:04:46.795Z,6.95
2023-03-11T05:07:13.753Z,6.95
2023-03-11T05:09:40.643Z,6.97
2023-03-11T05:12:07.549Z,7.22
2023-03-11T05:14:34.537Z,7.03
2023-03-11T05:17:01.452Z,7.00
2023-03-11T05:19:28.476Z,6.75
2023-03-11T05:21:55.414Z,7.60
2023-03-11T05:24:22.326Z,7.22
2023-03-11T05:26:49.454Z,7.50
2023-03-11T05:29:16.392Z,7.60
2023-03-11T05:31:43.311Z,7.22
2023-03-11T05:34:10.239Z,7.38
2023-03-11T05:36:37.171Z,7.43
2023-03-11T05:39:04.108Z,7.95
2023-03-11T05:41:31.164Z,7.03
2023-03-11T05:43:58.075Z,7.28
2023-03-11T05:46:40.044Z,7.28
2023-03-11T05:49:06.976Z,7.15
2023-03-11T05:51:33.862Z,7.15
2023-03-11T05:54:00.821Z,7.82
2023-03-11T05:56:27.961Z,7.10
2023-03-11T05:58:54.921Z,7.13
2023-03-11T06:01:21.884Z,7.43
2023-03-11T06:03:48.903Z,7.63
2023-03-11T06:06:15.865Z,7.05
2023-03-11T06:08:42.850Z,7.78
2023-03-11T06:11:11.932Z,7.95
2023-03-11T06:13:38.856Z,7.68
2023-03-11T06:16:05.902Z,7.93
2023-03-11T06:18:32.879Z,7.10
2023-03-11T06:20:59.800Z,7.50
2023-03-11T06:23:26.732Z,7.47
2023-03-11T06:25:53.617Z,7.60
2023-03-11T06:28:20.529Z,7.00
2023-03-11T06:30:47.439Z,7.20
2023-03-11T06:33:14.349Z,8.07
2023-03-11T06:35:41.271Z,7.72
2023-03-11T06:38:08.415Z,7.60
2023-03-11T06:40:35.308Z,7.63
2023-03-11T06:43:02.273Z,7.60
2023-03-11T06:45:29.238Z,8.18
2023-03-11T06:47:56.170Z,8.10
2023-03-11T06:50:23.094Z,7.68
2023-03-11T06:52:50.020Z,7.10
2023-03-11T06:55:16.926Z,7.32
2023-03-11T06:57:43.844Z,8.00
2023-03-11T07:00:10.769Z,7.28
2023-03-11T07:02:37.680Z,7.60
2023-03-11T07:05:04.632Z,7.30
2023-03-11T07:07:41.802Z,7.72
2023-03-11T07:10:22.322Z,7.10
2023-03-11T07:12:49.554Z,7.23
2023-03-11T07:15:17.017Z,6.78
2023-03-11T07:17:52.139Z,6.88
2023-03-11T07:20:25.580Z,6.78
2023-03-11T07:22:53.154Z,7.15
2023-03-11T07:25:20.113Z,6.50
2023-03-11T07:27:47.037Z,6.45
2023-03-11T07:30:14.664Z,6.28
2023-03-11T07:32:41.798Z,6.20
2023-03-11T07:35:08.796Z,6.18
2023-03-11T07:37:35.738Z,6.30
2023-03-11T07:40:05.759Z,5.72
2023-03-11T07:42:32.706Z,6.03
2023-03-11T07:44:59.597Z,6.53
2023-03-11T07:47:26.622Z,5.72
2023-03-11T07:49:54.734Z,5.72
2023-03-11T07:52:23.251Z,6.13
2023-03-11T07:54:50.193Z,5.25
2023-03-11T07:57:17.104Z,5.25
2023-03-11T07:59:44.022Z,5.20
2023-03-11T08:02:10.944Z,4.72
2023-03-11T08:04:45.128Z,5.07
2023-03-11T08:07:15.068Z,5.13
2023-03-11T08:12:11.342Z,4.57
2023-03-11T08:14:45.550Z,4.20
2023-03-11T08:17:12.431Z,4.35
2023-03-11T08:19:39.372Z,4.53
2023-03-11T08:22:06.283Z,4.05
2023-03-11T08:24:33.226Z,4.47
2023-03-11T08:27:00.287Z,3.72
2023-03-11T08:29:27.213Z,4.30
2023-03-11T08:31:54.112Z,4.10
2023-03-11T08:34:21.080Z,3.67
2023-03-11T08:36:48.117Z,3.67
2023-03-11T08:39:15.094Z,3.83
2023-03-11T08:41:42.031Z,3.72
2023-03-11T08:44:08.977Z,3.72
2023-03-11T08:46:36.017Z,3.10
2023-03-11T08:49:03.014Z,3.40
2023-03-11T08:51:29.952Z,3.10
2023-03-11T08:53:56.917Z,3.40
2023-03-11T08:56:23.865Z,3.05
2023-03-11T08:58:50.789Z,3.72
2023-03-11T09:01:17.776Z,3.78
2023-03-11T09:03:44.676Z,3.28
2023-03-11T09:06:11.626Z,3.22
2023-03-11T09:08:38.556Z,2.90
2023-03-11T09:11:10.855Z,2.90
2023-03-11T09:13:37.801Z,3.15
2023-03-11T09:16:04.817Z,3.20
2023-03-11T09:18:31.750Z,3.13
2023-03-11T09:20:58.733Z,3.30
2023-03-11T09:23:25.643Z,3.10
2023-03-11T09:25:52.548Z,3.28
2023-03-11T09:28:19.486Z,3.10
2023-03-11T09:30:46.420Z,3.10
2023-03-11T09:33:13.358Z,3.40
2023-03-11T09:35:40.356Z,3.25
2023-03-11T09:38:07.306Z,3.40
2023-03-11T09:40:34.228Z,2.97
2023-03-11T09:43:01.198Z,3.08
2023-03-11T09:45:28.118Z,2.97
2023-03-11T09:47:55.069Z,2.90
2023-03-11T09:50:22.018Z,2.90
2023-03-11T09:52:48.940Z,2.80
2023-03-11T09:55:15.847Z,3.10
2023-03-11T09:57:42.751Z,3.00
2023-03-11T10:00:09.696Z,2.70
2023-03-11T10:02:36.904Z,2.92
2023-03-11T10:05:03.931Z,2.80
2023-03-11T10:07:30.898Z,3.13
2023-03-11T10:09:57.893Z,2.63
2023-03-11T10:12:25.885Z,2.72
2023-03-11T10:14:52.876Z,2.40
2023-03-11T10:17:23.055Z,2.50
2023-03-11T10:19:50.004Z,2.40
2023-03-11T10:27:52.856Z,2.30
2023-03-11T10:35:52.327Z,2.50
2023-03-11T10:38:19.310Z,2.72
2023-03-11T10:40:46.231Z,2.60
2023-03-11T10:46:06.473Z,2.53
2023-03-11T10:48:33.403Z,2.25
2023-03-11T10:56:37.558Z,2.65
2023-03-11T11:01:55.717Z,2.50
2023-03-11T11:04:22.691Z,2.63
2023-03-11T11:06:49.616Z,2.85
2023-03-11T11:09:16.542Z,2.63
2023-03-11T11:11:43.456Z,2.78
2023-03-11T11:14:10.370Z,2.78
2023-03-11T11:16:37.344Z,2.63
2023-03-11T11:19:04.292Z,2.90
2023-03-11T11:21:31.193Z,2.70
2023-03-11T11:23:58.190Z,3.08
2023-03-11T11:26:25.082Z,3.00
2023-03-11T11:28:52.003Z,2.78
2023-03-11T11:31:19.015Z,3.55
2023-03-11T11:33:46.255Z,3.20
2023-03-11T11:36:15.187Z,3.20
2023-03-11T11:38:42.132Z,3.10
2023-03-11T11:41:09.124Z,3.05
2023-03-11T11:43:42.144Z,3.20
2023-03-11T11:46:09.263Z,3.20
2023-03-11T11:48:36.324Z,3.10
2023-03-11T11:51:03.301Z,3.55
2023-03-11T11:53:39.368Z,3.15
2023-03-11T11:56:06.285Z,2.78
2023-03-11T12:01:18.060Z,2.60
2023-03-11T12:03:44.997Z,2.65
2023-03-11T12:06:13.068Z,2.85
2023-03-11T12:08:44.477Z,2.20
2023-03-11T12:11:11.368Z,2.67
2023-03-11T12:13:38.282Z,2.70
2023-03-11T12:16:05.249Z,2.65
2023-03-11T12:18:32.165Z,2.67
2023-03-11T12:20:59.078Z,2.53
2023-03-11T12:23:26.125Z,2.33
2023-03-11T12:25:53.033Z,2.15
2023-03-11T12:28:20.003Z,2.20
2023-03-11T12:30:47.274Z,2.40
2023-03-11T12:33:14.186Z,2.72
2023-03-11T12:35:41.163Z,2.65
2023-03-11T12:38:08.097Z,2.40
2023-03-11T12:40:35.009Z,2.10
2023-03-11T12:43:01.894Z,2.10
2023-03-11T12:45:28.818Z,2.60
2023-03-11T12:47:56.828Z,2.00
2023-03-11T12:50:23.791Z,2.30
2023-03-11T12:52:50.687Z,1.90
2023-03-11T12:55:17.651Z,2.22
2023-03-11T12:57:44.565Z,2.60
2023-03-11T13:00:11.599Z,2.85
2023-03-11T13:02:38.588Z,2.60
2023-03-11T13:05:05.535Z,2.30
2023-03-11T13:07:32.424Z,2.55
2023-03-11T13:09:59.385Z,2.65
2023-03-11T13:12:26.264Z,2.63
2023-03-11T13:14:53.184Z,2.50
2023-03-11T13:17:20.082Z,2.20
2023-03-11T13:19:47.001Z,2.30
2023-03-11T13:22:13.912Z,2.05
2023-03-11T13:24:40.870Z,2.08
2023-03-11T13:27:08.236Z,2.20
2023-03-11T13:29:35.165Z,2.00
2023-03-11T13:32:02.065Z,2.10
2023-03-11T13:34:29.019Z,2.03
2023-03-11T13:36:55.929Z,2.35
2023-03-11T13:39:22.876Z,1.92
2023-03-11T13:41:49.773Z,1.90
2023-03-11T13:44:16.704Z,1.65
2023-03-11T13:46:43.620Z,1.70
2023-03-11T13:49:10.509Z,1.60
2023-03-11T13:51:37.436Z,1.70
2023-03-11T13:54:04.347Z,1.60
2023-03-11T13:56:31.360Z,1.83
2023-03-11T13:58:58.275Z,1.45
2023-03-11T14:01:25.257Z,2.03
2023-03-11T14:03:52.254Z,1.75
2023-03-11T14:06:19.857Z,1.65
2023-03-11T14:08:47.097Z,1.50
2023-03-11T14:11:14.016Z,1.85
2023-03-11T14:13:40.924Z,1.83
2023-03-11T14:16:08.173Z,1.50
2023-03-11T14:18:35.155Z,1.80
2023-03-11T14:21:02.097Z,1.70
2023-03-11T14:23:29.039Z,1.55
2023-03-11T14:25:55.971Z,1.50
2023-03-11T14:28:22.862Z,1.88
2023-03-11T14:30:49.770Z,1.55
2023-03-11T14:33:16.734Z,1.80
2023-03-11T14:35:43.689Z,2.00
2023-03-11T14:38:10.990Z,2.05
2023-03-11T14:40:37.898Z,1.77
2023-03-11T14:43:04.833Z,1.75
2023-03-11T14:45:31.771Z,1.70
2023-03-11T14:47:59.106Z,1.73
2023-03-11T14:50:26.532Z,1.60
2023-03-11T14:52:53.447Z,1.77
2023-03-11T14:55:20.367Z,1.70
2023-03-11T14:57:47.280Z,1.48
2023-03-11T15:00:14.205Z,1.85
2023-03-11T15:02:41.112Z,1.80
2023-03-11T15:05:08.022Z,1.67
2023-03-11T15:07:34.927Z,1.40
2023-03-11T15:10:01.832Z,1.90
2023-03-11T15:12:28.766Z,1.40
2023-03-11T15:14:55.694Z,1.50
2023-03-11T15:17:35.377Z,1.58
2023-03-11T15:20:04.210Z,1.40
2023-03-11T15:22:31.116Z,1.80
2023-03-11T15:24:58.165Z,1.70
2023-03-11T15:27:25.228Z,1.30
2023-03-11T15:29:52.165Z,1.20
2023-03-11T15:32:19.081Z,1.40
2023-03-11T15:34:46.097Z,1.67
2023-03-11T15:37:12.991Z,1.30
2023-03-11T15:39:39.927Z,1.65
2023-03-11T15:42:06.848Z,1.30
2023-03-11T15:44:33.781Z,1.58
2023-03-11T15:47:00.737Z,1.50
2023-03-11T15:49:32.126Z,1.50
2023-03-11T15:52:07.505Z,1.70
2023-03-11T15:54:49.470Z,1.80
2023-03-11T15:57:23.295Z,1.52
2023-03-11T15:59:50.256Z,1.70
2023-03-11T16:02:27.693Z,1.67
2023-03-11T16:04:54.780Z,1.60
2023-03-11T16:07:36.484Z,1.23
2023-03-11T16:10:05.797Z,1.95
2023-03-11T16:12:43.416Z,1.60
2023-03-11T16:15:14.487Z,1.73
2023-03-11T16:17:49.793Z,1.70
2023-03-11T16:20:22.368Z,1.70
2023-03-11T16:23:00.785Z,1.80
2023-03-11T16:25:37.613Z,1.50
2023-03-11T16:28:13.538Z,1.70
2023-03-11T16:30:41.379Z,1.40
2023-03-11T16:33:08.295Z,1.65
2023-03-11T16:35:35.244Z,1.60
2023-03-11T16:38:02.170Z,1.67
2023-03-11T16:40:29.100Z,1.60
2023-03-11T16:42:56.052Z,1.63
2023-03-11T16:45:23.178Z,1.85
2023-03-11T16:47:50.085Z,1.85
2023-03-11T16:50:18.184Z,1.90
2023-03-11T16:52:45.085Z,2.00
2023-03-11T16:55:11.992Z,1.77
2023-03-11T16:57:38.904Z,1.80
2023-03-11T17:00:05.817Z,2.10
2023-03-11T17:02:32.796Z,1.88
2023-03-11T17:04:59.852Z,1.90
2023-03-11T17:07:27.108Z,1.95
2023-03-11T17:09:54.088Z,2.47
2023-03-11T17:12:21.006Z,2.10
2023-03-11T17:14:47.911Z,1.80
2023-03-11T17:17:14.814Z,2.10
2023-03-11T17:19:41.704Z,1.88
2023-03-11T17:22:08.629Z,1.98
2023-03-11T17:24:35.530Z,2.00
2023-03-11T17:27:02.481Z,1.90
2023-03-11T17:29:29.389Z,1.98
2023-03-11T17:31:56.298Z,1.70
2023-03-11T17:34:23.224Z,1.70
2023-03-11T17:36:50.140Z,1.83
2023-03-11T17:39:17.133Z,1.90
2023-03-11T17:41:44.061Z,1.88
2023-03-11T17:46:55.753Z,1.88
2023-03-11T17:49:33.335Z,1.98
2023-03-11T17:52:00.277Z,1.52
2023-03-11T17:54:27.193Z,2.08
2023-03-11T17:56:54.114Z,1.80
2023-03-11T17:59:21.173Z,2.10
2023-03-11T18:01:48.328Z,2.00
2023-03-11T18:04:15.388Z,2.10
2023-03-11T18:06:42.318Z,1.73
2023-03-11T18:09:09.231Z,2.08
2023-03-11T18:11:36.198Z,2.25
2023-03-11T18:14:03.136Z,1.70
2023-03-11T18:16:30.282Z,2.33
2023-03-11T18:19:00.436Z,2.15
2023-03-11T18:21:27.476Z,2.47
2023-03-11T18:23:54.629Z,2.40
2023-03-11T18:26:21.528Z,2.47
2023-03-11T18:28:48.464Z,2.47
2023-03-11T18:31:15.487Z,2.30
2023-03-11T18:33:47.139Z,2.15
2023-03-11T18:36:14.121Z,2.50
2023-03-11T18:38:41.059Z,2.58
2023-03-11T18:41:12.389Z,2.22
2023-03-11T18:43:39.340Z,3.38
2023-03-11T18:46:06.308Z,2.47
2023-03-11T18:48:33.238Z,2.85
2023-03-11T18:51:00.427Z,2.72
2023-03-11T18:56:19.077Z,3.17
2023-03-11T18:58:48.538Z,2.85
2023-03-11T19:15:07.352Z,3.60
2023-03-11T19:34:21.892Z,2.93
2023-03-11T19:39:49.579Z,2.65
2023-03-11T19:42:24.142Z,2.60
2023-03-11T19:47:34.514Z,2.55
2023-03-11T19:50:08.655Z,2.55
2023-03-11T19:55:26.406Z,2.67
2023-03-11T19:57:53.376Z,3.17
2023-03-11T20:00:20.346Z,2.65
2023-03-11T20:02:47.347Z,2.38
2023-03-11T20:05:14.400Z,2.50
2023-03-11T20:07:41.420Z,2.40
2023-03-11T20:10:08.300Z,2.65
2023-03-11T20:12:35.239Z,2.25
2023-03-11T20:15:02.321Z,2.50
2023-03-11T20:17:29.331Z,2.20
2023-03-11T20:19:56.299Z,2.33
2023-03-11T20:22:23.334Z,2.47
2023-03-11T20:24:50.315Z,2.67
2023-03-11T20:27:17.329Z,2.42
2023-03-11T20:29:44.344Z,2.33
2023-03-11T20:32:11.358Z,2.20
2023-03-11T20:34:38.485Z,2.50
2023-03-11T20:37:05.502Z,2.50
2023-03-11T20:39:32.617Z,2.17
2023-03-11T20:41:59.644Z,1.90
2023-03-11T20:44:26.545Z,1.90
2023-03-11T20:46:53.568Z,2.20
2023-03-11T20:49:20.574Z,2.13
2023-03-11T20:51:47.536Z,2.20
2023-03-11T20:54:14.440Z,2.20
2023-03-11T20:56:41.630Z,2.35
2023-03-11T20:59:08.625Z,2.75
2023-03-11T21:01:35.639Z,2.22
2023-03-11T21:04:02.662Z,2.10
2023-03-11T21:06:29.626Z,2.10
2023-03-11T21:08:56.563Z,2.00
2023-03-11T21:11:23.486Z,1.98
2023-03-11T21:13:50.438Z,2.22
2023-03-11T21:16:17.434Z,2.10
2023-03-11T21:18:44.507Z,2.15
2023-03-11T21:21:11.422Z,2.40
2023-03-11T21:23:38.431Z,2.20
2023-03-11T21:26:05.344Z,2.30
2023-03-11T21:28:32.346Z,2.60
2023-03-11T21:30:59.412Z,2.60
2023-03-11T21:33:26.529Z,2.38
2023-03-11T21:35:53.577Z,2.47
2023-03-11T21:38:20.628Z,2.42
2023-03-11T21:40:47.697Z,2.58
2023-03-11T21:43:14.850Z,2.70
2023-03-11T21:45:42.209Z,3.38
2023-03-11T21:48:15.887Z,3.00
2023-03-11T21:50:43.078Z,2.70
2023-03-11T21:53:11.613Z,2.60
2023-03-11T21:55:40.368Z,3.10
2023-03-11T21:58:07.532Z,3.20
2023-03-11T22:00:38.867Z,2.92
2023-03-11T22:03:08.303Z,2.78
2023-03-11T22:05:35.438Z,2.63
2023-03-11T22:08:02.716Z,2.97
2023-03-11T22:10:29.922Z,2.58
2023-03-11T22:12:57.238Z,2.92
2023-03-11T22:15:24.335Z,2.90
2023-03-11T22:17:51.445Z,3.08
2023-03-11T22:20:18.596Z,2.88
2023-03-11T22:22:48.806Z,3.28
2023-03-11T22:25:15.724Z,2.95
2023-03-11T22:27:42.972Z,3.42
2023-03-11T22:30:09.947Z,3.53
2023-03-11T22:32:36.896Z,3.17
2023-03-11T22:35:03.908Z,3.72
2023-03-11T22:37:30.840Z,3.50
2023-03-11T22:39:57.763Z,3.70
2023-03-11T22:42:24.770Z,3.17
2023-03-11T22:44:51.835Z,3.03
2023-03-11T22:47:18.787Z,3.00
2023-03-11T22:49:45.695Z,3.22
2023-03-11T22:52:12.694Z,3.08
2023-03-11T22:54:39.646Z,2.92
2023-03-11T22:57:06.666Z,3.75
2023-03-11T22:59:34.185Z,3.50
2023-03-11T23:02:01.270Z,3.58
2023-03-11T23:04:28.509Z,3.85
2023-03-11T23:06:55.528Z,3.60
2023-03-11T23:09:22.475Z,3.40
2023-03-11T23:11:49.721Z,3.17
2023-03-11T23:14:16.754Z,3.83
2023-03-11T23:16:43.952Z,3.47
2023-03-11T23:19:14.173Z,3.70
2023-03-11T23:21:42.408Z,3.60
2023-03-11T23:24:09.508Z,3.80
2023-03-11T23:26:43.115Z,2.97
2023-03-11T23:29:10.257Z,3.33
2023-03-11T23:31:37.401Z,3.20
2023-03-11T23:34:05.369Z,3.40
2023-03-11T23:36:32.548Z,3.63
2023-03-11T23:38:59.549Z,3.42
2023-03-11T23:41:26.494Z,3.42
2023-03-11T23:43:53.568Z,2.75
2023-03-11T23:46:27.532Z,3.25
2023-03-11T23:48:56.698Z,3.35
2023-03-11T23:51:28.536Z,3.17
2023-03-11T23:53:59.675Z,3.38
2023-03-11T23:56:26.900Z,3.30
